sensor_id;sensor_type;location;lat;lon;timestamp;temperature;humidity
12006;DHT22;6062;47.294;12.182;2023-05-20T00:00:08;8.30;61.90
12006;DHT22;6062;47.294;12.182;2023-05-20T00:02:35;8.30;61.90
12006;DHT22;6062;47.294;12.182;2023-05-20T00:05:01;8.30;61.70
12006;DHT22;6062;47.294;12.182;2023-05-20T00:07:27;8.40;61.70
12006;DHT22;6062;47.294;12.182;2023-05-20T00:09:53;8.40;61.70
12006;DHT22;6062;47.294;12.182;2023-05-20T00:12:18;8.40;61.50
12006;DHT22;6062;47.294;12.182;2023-05-20T00:14:44;8.40;61.50
12006;DHT22;6062;47.294;12.182;2023-05-20T00:17:10;8.50;62.30
12006;DHT22;6062;47.294;12.182;2023-05-20T00:19:35;8.50;61.50
12006;DHT22;6062;47.294;12.182;2023-05-20T00:22:01;8.50;61.50
12006;DHT22;6062;47.294;12.182;2023-05-20T00:24:27;8.50;61.40
12006;DHT22;6062;47.294;12.182;2023-05-20T00:26:53;8.60;61.30
12006;DHT22;6062;47.294;12.182;2023-05-20T00:29:21;8.60;61.10
12006;DHT22;6062;47.294;12.182;2023-05-20T00:31:47;8.60;61.10
12006;DHT22;6062;47.294;12.182;2023-05-20T00:34:13;8.60;60.90
12006;DHT22;6062;47.294;12.182;2023-05-20T00:36:38;8.60;60.80
12006;DHT22;6062;47.294;12.182;2023-05-20T00:39:04;8.70;60.70
12006;DHT22;6062;47.294;12.182;2023-05-20T00:41:31;8.60;60.70
12006;DHT22;6062;47.294;12.182;2023-05-20T00:43:57;8.60;60.70
12006;DHT22;6062;47.294;12.182;2023-05-20T00:46:23;8.60;60.70
12006;DHT22;6062;47.294;12.182;2023-05-20T00:48:51;8.60;60.70
12006;DHT22;6062;47.294;12.182;2023-05-20T00:51:18;8.60;60.60
12006;DHT22;6062;47.294;12.182;2023-05-20T00:53:45;8.60;60.50
12006;DHT22;6062;47.294;12.182;2023-05-20T00:56:11;8.50;60.50
12006;DHT22;6062;47.294;12.182;2023-05-20T00:58:37;8.50;60.60
12006;DHT22;6062;47.294;12.182;2023-05-20T01:01:04;8.50;60.60
12006;DHT22;6062;47.294;12.182;2023-05-20T01:03:31;8.40;60.50
12006;DHT22;6062;47.294;12.182;2023-05-20T01:05:56;8.40;60.60
12006;DHT22;6062;47.294;12.182;2023-05-20T01:08:24;8.30;60.60
12006;DHT22;6062;47.294;12.182;2023-05-20T01:11:06;8.30;60.70
12006;DHT22;6062;47.294;12.182;2023-05-20T01:13:46;8.30;60.80
12006;DHT22;6062;47.294;12.182;2023-05-20T01:16:19;8.20;60.90
12006;DHT22;6062;47.294;12.182;2023-05-20T01:18:49;8.20;60.80
12006;DHT22;6062;47.294;12.182;2023-05-20T01:21:19;8.20;60.90
12006;DHT22;6062;47.294;12.182;2023-05-20T01:23:46;8.10;60.90
12006;DHT22;6062;47.294;12.182;2023-05-20T01:26:12;8.10;60.80
12006;DHT22;6062;47.294;12.182;2023-05-20T01:28:40;8.10;60.90
12006;DHT22;6062;47.294;12.182;2023-05-20T01:31:22;8.00;60.80
12006;DHT22;6062;47.294;12.182;2023-05-20T01:33:53;8.00;60.90
12006;DHT22;6062;47.294;12.182;2023-05-20T01:36:21;7.90;60.90
12006;DHT22;6062;47.294;12.182;2023-05-20T01:38:48;7.90;61.20
12006;DHT22;6062;47.294;12.182;2023-05-20T01:41:15;7.90;61.30
12006;DHT22;6062;47.294;12.182;2023-05-20T01:43:42;7.90;61.60
12006;DHT22;6062;47.294;12.182;2023-05-20T01:46:08;8.00;61.70
12006;DHT22;6062;47.294;12.182;2023-05-20T01:48:34;8.00;61.80
12006;DHT22;6062;47.294;12.182;2023-05-20T01:51:00;8.10;62.00
12006;DHT22;6062;47.294;12.182;2023-05-20T01:53:26;8.10;61.90
12006;DHT22;6062;47.294;12.182;2023-05-20T01:55:51;8.20;61.80
12006;DHT22;6062;47.294;12.182;2023-05-20T01:58:17;8.20;61.80
12006;DHT22;6062;47.294;12.182;2023-05-20T02:00:43;8.20;61.60
12006;DHT22;6062;47.294;12.182;2023-05-20T02:03:09;8.30;61.40
12006;DHT22;6062;47.294;12.182;2023-05-20T02:05:35;8.30;61.20
12006;DHT22;6062;47.294;12.182;2023-05-20T02:08:01;8.40;61.30
12006;DHT22;6062;47.294;12.182;2023-05-20T02:10:26;8.40;61.20
12006;DHT22;6062;47.294;12.182;2023-05-20T02:12:52;8.50;61.10
12006;DHT22;6062;47.294;12.182;2023-05-20T02:15:18;8.50;61.00
12006;DHT22;6062;47.294;12.182;2023-05-20T02:17:45;8.60;61.00
12006;DHT22;6062;47.294;12.182;2023-05-20T02:20:11;8.50;60.80
12006;DHT22;6062;47.294;12.182;2023-05-20T02:22:38;8.60;60.80
12006;DHT22;6062;47.294;12.182;2023-05-20T02:25:04;8.60;60.80
12006;DHT22;6062;47.294;12.182;2023-05-20T02:27:30;8.60;60.70
12006;DHT22;6062;47.294;12.182;2023-05-20T02:29:56;8.60;60.60
12006;DHT22;6062;47.294;12.182;2023-05-20T02:32:22;8.60;60.50
12006;DHT22;6062;47.294;12.182;2023-05-20T02:34:53;8.70;60.50
12006;DHT22;6062;47.294;12.182;2023-05-20T02:37:19;8.70;60.30
12006;DHT22;6062;47.294;12.182;2023-05-20T02:39:45;8.70;60.00
12006;DHT22;6062;47.294;12.182;2023-05-20T02:42:11;8.70;60.00
12006;DHT22;6062;47.294;12.182;2023-05-20T02:44:37;8.70;59.90
12006;DHT22;6062;47.294;12.182;2023-05-20T02:47:03;8.80;59.70
12006;DHT22;6062;47.294;12.182;2023-05-20T02:49:28;8.80;59.60
12006;DHT22;6062;47.294;12.182;2023-05-20T02:51:54;8.80;59.60
12006;DHT22;6062;47.294;12.182;2023-05-20T02:54:20;8.80;59.70
12006;DHT22;6062;47.294;12.182;2023-05-20T02:56:45;8.80;59.80
12006;DHT22;6062;47.294;12.182;2023-05-20T02:59:11;8.80;59.60
12006;DHT22;6062;47.294;12.182;2023-05-20T03:01:37;8.80;59.60
12006;DHT22;6062;47.294;12.182;2023-05-20T03:04:04;8.80;59.60
12006;DHT22;6062;47.294;12.182;2023-05-20T03:06:30;8.80;59.60
12006;DHT22;6062;47.294;12.182;2023-05-20T03:08:56;8.80;59.80
12006;DHT22;6062;47.294;12.182;2023-05-20T03:11:23;8.80;60.00
12006;DHT22;6062;47.294;12.182;2023-05-20T03:13:48;8.80;59.90
12006;DHT22;6062;47.294;12.182;2023-05-20T03:16:14;8.80;59.90
12006;DHT22;6062;47.294;12.182;2023-05-20T03:18:41;8.80;59.90
12006;DHT22;6062;47.294;12.182;2023-05-20T03:21:07;8.80;60.00
12006;DHT22;6062;47.294;12.182;2023-05-20T03:23:33;8.80;59.90
12006;DHT22;6062;47.294;12.182;2023-05-20T03:25:59;8.90;60.00
12006;DHT22;6062;47.294;12.182;2023-05-20T03:28:26;8.90;60.10
12006;DHT22;6062;47.294;12.182;2023-05-20T03:30:51;8.90;60.20
12006;DHT22;6062;47.294;12.182;2023-05-20T03:33:17;8.90;60.10
12006;DHT22;6062;47.294;12.182;2023-05-20T03:35:43;8.90;60.10
12006;DHT22;6062;47.294;12.182;2023-05-20T03:38:08;9.00;60.00
12006;DHT22;6062;47.294;12.182;2023-05-20T03:40:34;9.00;59.80
12006;DHT22;6062;47.294;12.182;2023-05-20T03:43:00;9.00;59.80
12006;DHT22;6062;47.294;12.182;2023-05-20T03:45:26;9.00;59.70
12006;DHT22;6062;47.294;12.182;2023-05-20T03:47:51;9.10;59.80
12006;DHT22;6062;47.294;12.182;2023-05-20T03:50:17;9.00;59.70
12006;DHT22;6062;47.294;12.182;2023-05-20T03:52:43;9.00;59.70
12006;DHT22;6062;47.294;12.182;2023-05-20T03:55:09;9.00;59.70
12006;DHT22;6062;47.294;12.182;2023-05-20T03:57:35;9.00;59.70
12006;DHT22;6062;47.294;12.182;2023-05-20T04:00:01;9.00;60.30
12006;DHT22;6062;47.294;12.182;2023-05-20T04:02:33;9.10;59.80
12006;DHT22;6062;47.294;12.182;2023-05-20T04:04:58;9.10;59.80
12006;DHT22;6062;47.294;12.182;2023-05-20T04:07:26;9.10;59.90
12006;DHT22;6062;47.294;12.182;2023-05-20T04:09:54;9.10;60.00
12006;DHT22;6062;47.294;12.182;2023-05-20T04:12:20;9.10;60.10
12006;DHT22;6062;47.294;12.182;2023-05-20T04:14:45;9.10;60.20
12006;DHT22;6062;47.294;12.182;2023-05-20T04:17:14;9.20;60.20
12006;DHT22;6062;47.294;12.182;2023-05-20T04:19:40;9.30;60.40
12006;DHT22;6062;47.294;12.182;2023-05-20T04:22:05;9.30;60.30
12006;DHT22;6062;47.294;12.182;2023-05-20T04:24:31;9.40;60.30
12006;DHT22;6062;47.294;12.182;2023-05-20T04:26:57;9.50;60.10
12006;DHT22;6062;47.294;12.182;2023-05-20T04:29:22;9.60;59.90
12006;DHT22;6062;47.294;12.182;2023-05-20T04:31:48;9.70;59.60
12006;DHT22;6062;47.294;12.182;2023-05-20T04:34:14;9.80;59.40
12006;DHT22;6062;47.294;12.182;2023-05-20T04:36:43;9.80;59.30
12006;DHT22;6062;47.294;12.182;2023-05-20T04:39:10;9.90;59.00
12006;DHT22;6062;47.294;12.182;2023-05-20T04:41:35;10.00;58.40
12006;DHT22;6062;47.294;12.182;2023-05-20T04:44:01;9.90;58.10
12006;DHT22;6062;47.294;12.182;2023-05-20T04:46:28;9.90;58.00
12006;DHT22;6062;47.294;12.182;2023-05-20T04:48:54;9.80;58.00
12006;DHT22;6062;47.294;12.182;2023-05-20T04:51:19;9.80;58.10
12006;DHT22;6062;47.294;12.182;2023-05-20T04:53:45;9.70;58.20
12006;DHT22;6062;47.294;12.182;2023-05-20T04:56:11;9.60;58.30
12006;DHT22;6062;47.294;12.182;2023-05-20T04:58:37;9.50;58.40
12006;DHT22;6062;47.294;12.182;2023-05-20T05:01:03;9.40;58.60
12006;DHT22;6062;47.294;12.182;2023-05-20T05:03:30;9.40;58.70
12006;DHT22;6062;47.294;12.182;2023-05-20T05:05:56;9.30;59.00
12006;DHT22;6062;47.294;12.182;2023-05-20T05:08:23;9.30;59.30
12006;DHT22;6062;47.294;12.182;2023-05-20T05:10:50;9.30;59.50
12006;DHT22;6062;47.294;12.182;2023-05-20T05:13:17;9.40;59.80
12006;DHT22;6062;47.294;12.182;2023-05-20T05:15:43;9.50;60.00
12006;DHT22;6062;47.294;12.182;2023-05-20T05:18:08;9.60;60.10
12006;DHT22;6062;47.294;12.182;2023-05-20T05:20:34;9.70;60.10
12006;DHT22;6062;47.294;12.182;2023-05-20T05:23:00;9.80;60.10
12006;DHT22;6062;47.294;12.182;2023-05-20T05:25:25;10.00;60.00
12006;DHT22;6062;47.294;12.182;2023-05-20T05:27:51;10.10;59.70
12006;DHT22;6062;47.294;12.182;2023-05-20T05:30:19;10.30;59.70
12006;DHT22;6062;47.294;12.182;2023-05-20T05:32:46;10.40;59.50
12006;DHT22;6062;47.294;12.182;2023-05-20T05:35:12;10.60;59.40
12006;DHT22;6062;47.294;12.182;2023-05-20T05:37:38;10.70;59.40
12006;DHT22;6062;47.294;12.182;2023-05-20T05:40:04;10.90;59.20
12006;DHT22;6062;47.294;12.182;2023-05-20T05:42:32;11.00;58.70
12006;DHT22;6062;47.294;12.182;2023-05-20T05:44:57;11.20;58.50
12006;DHT22;6062;47.294;12.182;2023-05-20T05:47:23;11.40;58.50
12006;DHT22;6062;47.294;12.182;2023-05-20T05:49:53;11.50;58.60
12006;DHT22;6062;47.294;12.182;2023-05-20T05:52:19;11.70;58.70
12006;DHT22;6062;47.294;12.182;2023-05-20T05:54:46;11.80;58.40
12006;DHT22;6062;47.294;12.182;2023-05-20T05:57:11;12.00;58.10
12006;DHT22;6062;47.294;12.182;2023-05-20T05:59:37;12.20;58.00
12006;DHT22;6062;47.294;12.182;2023-05-20T06:02:03;12.30;57.70
12006;DHT22;6062;47.294;12.182;2023-05-20T06:04:29;12.50;57.60
12006;DHT22;6062;47.294;12.182;2023-05-20T06:06:54;12.70;57.40
12006;DHT22;6062;47.294;12.182;2023-05-20T06:09:20;12.90;57.00
12006;DHT22;6062;47.294;12.182;2023-05-20T06:11:46;13.00;56.40
12006;DHT22;6062;47.294;12.182;2023-05-20T06:14:11;13.30;56.40
12006;DHT22;6062;47.294;12.182;2023-05-20T06:16:37;13.40;56.20
12006;DHT22;6062;47.294;12.182;2023-05-20T06:19:03;13.60;55.90
12006;DHT22;6062;47.294;12.182;2023-05-20T06:21:30;13.80;55.20
12006;DHT22;6062;47.294;12.182;2023-05-20T06:23:56;13.90;54.10
12006;DHT22;6062;47.294;12.182;2023-05-20T06:26:22;14.00;53.50
12006;DHT22;6062;47.294;12.182;2023-05-20T06:28:48;14.00;53.80
12006;DHT22;6062;47.294;12.182;2023-05-20T06:31:13;14.00;54.00
12006;DHT22;6062;47.294;12.182;2023-05-20T06:33:39;14.10;54.10
12006;DHT22;6062;47.294;12.182;2023-05-20T06:36:05;14.20;53.80
12006;DHT22;6062;47.294;12.182;2023-05-20T06:38:31;14.30;53.80
12006;DHT22;6062;47.294;12.182;2023-05-20T06:40:57;14.50;54.10
12006;DHT22;6062;47.294;12.182;2023-05-20T06:43:22;14.60;53.60
12006;DHT22;6062;47.294;12.182;2023-05-20T06:45:48;14.90;53.30
12006;DHT22;6062;47.294;12.182;2023-05-20T06:48:15;15.00;52.60
12006;DHT22;6062;47.294;12.182;2023-05-20T06:50:40;15.30;52.00
12006;DHT22;6062;47.294;12.182;2023-05-20T06:53:06;15.40;51.30
12006;DHT22;6062;47.294;12.182;2023-05-20T06:55:32;15.50;51.30
12006;DHT22;6062;47.294;12.182;2023-05-20T06:57:57;15.60;51.00
12006;DHT22;6062;47.294;12.182;2023-05-20T07:00:23;15.80;50.70
12006;DHT22;6062;47.294;12.182;2023-05-20T07:02:49;16.00;50.10
12006;DHT22;6062;47.294;12.182;2023-05-20T07:05:15;16.20;50.30
12006;DHT22;6062;47.294;12.182;2023-05-20T07:07:40;16.30;49.60
12006;DHT22;6062;47.294;12.182;2023-05-20T07:10:07;16.50;49.70
12006;DHT22;6062;47.294;12.182;2023-05-20T07:12:33;16.60;49.30
12006;DHT22;6062;47.294;12.182;2023-05-20T07:14:59;16.80;49.10
12006;DHT22;6062;47.294;12.182;2023-05-20T07:17:25;17.00;47.80
12006;DHT22;6062;47.294;12.182;2023-05-20T07:19:52;17.00;47.30
12006;DHT22;6062;47.294;12.182;2023-05-20T07:22:17;17.00;47.40
12006;DHT22;6062;47.294;12.182;2023-05-20T07:24:44;16.90;47.00
12006;DHT22;6062;47.294;12.182;2023-05-20T07:27:09;16.80;46.40
12006;DHT22;6062;47.294;12.182;2023-05-20T07:29:36;16.70;46.10
12006;DHT22;6062;47.294;12.182;2023-05-20T07:32:03;16.50;45.70
12006;DHT22;6062;47.294;12.182;2023-05-20T07:34:29;16.20;45.90
12006;DHT22;6062;47.294;12.182;2023-05-20T07:36:56;15.90;46.40
12006;DHT22;6062;47.294;12.182;2023-05-20T07:39:22;15.60;47.20
12006;DHT22;6062;47.294;12.182;2023-05-20T07:41:49;15.40;47.50
12006;DHT22;6062;47.294;12.182;2023-05-20T07:44:15;15.30;48.10
12006;DHT22;6062;47.294;12.182;2023-05-20T07:46:43;15.10;48.60
12006;DHT22;6062;47.294;12.182;2023-05-20T07:49:09;14.90;48.80
12006;DHT22;6062;47.294;12.182;2023-05-20T07:51:36;14.80;49.20
12006;DHT22;6062;47.294;12.182;2023-05-20T07:54:01;14.70;49.60
12006;DHT22;6062;47.294;12.182;2023-05-20T07:56:27;14.60;50.00
12006;DHT22;6062;47.294;12.182;2023-05-20T07:58:56;14.50;50.40
12006;DHT22;6062;47.294;12.182;2023-05-20T08:01:23;14.50;51.20
12006;DHT22;6062;47.294;12.182;2023-05-20T08:03:50;14.50;51.70
12006;DHT22;6062;47.294;12.182;2023-05-20T08:06:16;14.60;51.20
12006;DHT22;6062;47.294;12.182;2023-05-20T08:08:42;14.70;51.10
12006;DHT22;6062;47.294;12.182;2023-05-20T08:11:08;14.80;51.00
12006;DHT22;6062;47.294;12.182;2023-05-20T08:13:34;14.80;50.90
12006;DHT22;6062;47.294;12.182;2023-05-20T08:16:00;14.90;51.30
12006;DHT22;6062;47.294;12.182;2023-05-20T08:18:28;15.00;51.30
12006;DHT22;6062;47.294;12.182;2023-05-20T08:20:54;15.10;51.00
12006;DHT22;6062;47.294;12.182;2023-05-20T08:23:20;15.20;50.40
12006;DHT22;6062;47.294;12.182;2023-05-20T08:25:46;15.20;50.10
12006;DHT22;6062;47.294;12.182;2023-05-20T08:28:12;15.20;50.30
12006;DHT22;6062;47.294;12.182;2023-05-20T08:30:38;15.30;51.50
12006;DHT22;6062;47.294;12.182;2023-05-20T08:33:04;15.30;51.40
12006;DHT22;6062;47.294;12.182;2023-05-20T08:35:30;15.50;51.50
12006;DHT22;6062;47.294;12.182;2023-05-20T08:37:56;15.70;51.70
12006;DHT22;6062;47.294;12.182;2023-05-20T08:40:22;15.90;51.90
12006;DHT22;6062;47.294;12.182;2023-05-20T08:42:49;16.10;51.20
12006;DHT22;6062;47.294;12.182;2023-05-20T08:45:20;16.30;51.30
12006;DHT22;6062;47.294;12.182;2023-05-20T08:47:48;16.50;51.40
12006;DHT22;6062;47.294;12.182;2023-05-20T08:50:15;16.80;51.40
12006;DHT22;6062;47.294;12.182;2023-05-20T08:52:43;17.00;50.20
12006;DHT22;6062;47.294;12.182;2023-05-20T08:55:18;17.20;49.50
12006;DHT22;6062;47.294;12.182;2023-05-20T08:57:54;17.30;49.10
12006;DHT22;6062;47.294;12.182;2023-05-20T09:00:21;17.40;48.90
12006;DHT22;6062;47.294;12.182;2023-05-20T09:02:51;17.40;48.90
12006;DHT22;6062;47.294;12.182;2023-05-20T09:05:18;17.50;48.10
12006;DHT22;6062;47.294;12.182;2023-05-20T09:07:44;17.60;48.40
12006;DHT22;6062;47.294;12.182;2023-05-20T09:10:10;17.70;48.50
12006;DHT22;6062;47.294;12.182;2023-05-20T09:12:36;17.70;48.90
12006;DHT22;6062;47.294;12.182;2023-05-20T09:15:03;17.90;48.40
12006;DHT22;6062;47.294;12.182;2023-05-20T09:17:29;18.10;48.00
12006;DHT22;6062;47.294;12.182;2023-05-20T09:19:55;18.20;47.80
12006;DHT22;6062;47.294;12.182;2023-05-20T09:22:26;18.40;48.00
12006;DHT22;6062;47.294;12.182;2023-05-20T09:24:53;18.60;48.50
12006;DHT22;6062;47.294;12.182;2023-05-20T09:27:20;18.90;47.80
12006;DHT22;6062;47.294;12.182;2023-05-20T09:29:47;19.10;46.20
12006;DHT22;6062;47.294;12.182;2023-05-20T09:32:13;19.20;44.80
12006;DHT22;6062;47.294;12.182;2023-05-20T09:34:40;19.20;44.90
12006;DHT22;6062;47.294;12.182;2023-05-20T09:37:08;19.20;45.30
12006;DHT22;6062;47.294;12.182;2023-05-20T09:40:02;19.10;44.60
12006;DHT22;6062;47.294;12.182;2023-05-20T09:42:38;19.00;44.30
12006;DHT22;6062;47.294;12.182;2023-05-20T09:45:06;18.80;44.00
12006;DHT22;6062;47.294;12.182;2023-05-20T09:47:37;18.70;44.10
12006;DHT22;6062;47.294;12.182;2023-05-20T09:50:08;18.50;44.60
12006;DHT22;6062;47.294;12.182;2023-05-20T09:52:36;18.30;44.90
12006;DHT22;6062;47.294;12.182;2023-05-20T09:55:04;18.20;45.00
12006;DHT22;6062;47.294;12.182;2023-05-20T09:57:33;18.00;45.80
12006;DHT22;6062;47.294;12.182;2023-05-20T10:00:00;17.90;46.50
12006;DHT22;6062;47.294;12.182;2023-05-20T10:02:29;17.80;46.20
12006;DHT22;6062;47.294;12.182;2023-05-20T10:04:56;17.80;46.70
12006;DHT22;6062;47.294;12.182;2023-05-20T10:07:38;17.80;46.80
12006;DHT22;6062;47.294;12.182;2023-05-20T10:10:32;17.90;46.80
12006;DHT22;6062;47.294;12.182;2023-05-20T10:13:05;18.10;46.90
12006;DHT22;6062;47.294;12.182;2023-05-20T10:16:22;18.20;45.40
12006;DHT22;6062;47.294;12.182;2023-05-20T10:22:01;18.10;45.00
12006;DHT22;6062;47.294;12.182;2023-05-20T10:24:32;18.00;44.50
12006;DHT22;6062;47.294;12.182;2023-05-20T10:27:01;17.90;44.40
12006;DHT22;6062;47.294;12.182;2023-05-20T10:29:28;17.70;45.00
12006;DHT22;6062;47.294;12.182;2023-05-20T10:31:54;17.50;45.60
12006;DHT22;6062;47.294;12.182;2023-05-20T10:34:21;17.50;46.10
12006;DHT22;6062;47.294;12.182;2023-05-20T10:39:28;17.30;45.40
12006;DHT22;6062;47.294;12.182;2023-05-20T10:42:07;17.20;45.20
12006;DHT22;6062;47.294;12.182;2023-05-20T10:44:46;17.00;45.00
12006;DHT22;6062;47.294;12.182;2023-05-20T10:47:13;16.80;44.90
12006;DHT22;6062;47.294;12.182;2023-05-20T10:49:43;16.50;45.10
12006;DHT22;6062;47.294;12.182;2023-05-20T10:52:13;16.30;45.80
12006;DHT22;6062;47.294;12.182;2023-05-20T10:57:20;16.00;46.90
12006;DHT22;6062;47.294;12.182;2023-05-20T10:59:47;15.90;46.50
12006;DHT22;6062;47.294;12.182;2023-05-20T11:02:16;15.80;47.30
12006;DHT22;6062;47.294;12.182;2023-05-20T11:04:43;15.60;47.40
12006;DHT22;6062;47.294;12.182;2023-05-20T11:07:10;15.50;47.50
12006;DHT22;6062;47.294;12.182;2023-05-20T11:09:36;15.50;48.20
12006;DHT22;6062;47.294;12.182;2023-05-20T11:12:01;15.40;48.70
12006;DHT22;6062;47.294;12.182;2023-05-20T11:14:28;15.50;48.00
12006;DHT22;6062;47.294;12.182;2023-05-20T11:16:58;15.40;47.90
12006;DHT22;6062;47.294;12.182;2023-05-20T11:19:25;15.50;48.00
12006;DHT22;6062;47.294;12.182;2023-05-20T11:21:51;15.50;48.10
12006;DHT22;6062;47.294;12.182;2023-05-20T11:24:25;15.40;48.10
12006;DHT22;6062;47.294;12.182;2023-05-20T11:26:55;15.40;47.80
12006;DHT22;6062;47.294;12.182;2023-05-20T11:29:22;15.30;48.70
12006;DHT22;6062;47.294;12.182;2023-05-20T11:31:51;15.30;47.90
12006;DHT22;6062;47.294;12.182;2023-05-20T11:34:21;15.30;48.00
12006;DHT22;6062;47.294;12.182;2023-05-20T11:36:47;15.30;47.90
12006;DHT22;6062;47.294;12.182;2023-05-20T11:39:16;15.20;48.20
12006;DHT22;6062;47.294;12.182;2023-05-20T11:41:42;15.20;47.60
12006;DHT22;6062;47.294;12.182;2023-05-20T11:44:11;15.20;47.60
12006;DHT22;6062;47.294;12.182;2023-05-20T11:46:41;15.10;47.40
12006;DHT22;6062;47.294;12.182;2023-05-20T11:49:08;15.10;48.00
12006;DHT22;6062;47.294;12.182;2023-05-20T11:51:35;15.00;47.80
12006;DHT22;6062;47.294;12.182;2023-05-20T11:54:03;15.00;48.10
12006;DHT22;6062;47.294;12.182;2023-05-20T11:56:35;14.90;48.20
12006;DHT22;6062;47.294;12.182;2023-05-20T11:59:03;14.90;48.00
12006;DHT22;6062;47.294;12.182;2023-05-20T12:01:34;14.80;48.30
12006;DHT22;6062;47.294;12.182;2023-05-20T12:04:05;14.80;48.10
12006;DHT22;6062;47.294;12.182;2023-05-20T12:06:32;14.80;47.90
12006;DHT22;6062;47.294;12.182;2023-05-20T12:09:00;14.90;47.80
12006;DHT22;6062;47.294;12.182;2023-05-20T12:11:34;14.90;47.90
12006;DHT22;6062;47.294;12.182;2023-05-20T12:14:03;14.80;48.10
12006;DHT22;6062;47.294;12.182;2023-05-20T12:16:31;14.80;48.10
12006;DHT22;6062;47.294;12.182;2023-05-20T12:18:57;14.80;48.00
12006;DHT22;6062;47.294;12.182;2023-05-20T12:21:23;14.80;48.10
12006;DHT22;6062;47.294;12.182;2023-05-20T12:23:49;14.80;48.20
12006;DHT22;6062;47.294;12.182;2023-05-20T12:26:15;14.70;48.30
12006;DHT22;6062;47.294;12.182;2023-05-20T12:28:41;14.70;48.00
12006;DHT22;6062;47.294;12.182;2023-05-20T12:31:06;14.70;48.40
12006;DHT22;6062;47.294;12.182;2023-05-20T12:33:32;14.70;48.30
12006;DHT22;6062;47.294;12.182;2023-05-20T12:35:58;14.70;48.80
12006;DHT22;6062;47.294;12.182;2023-05-20T12:38:24;14.70;49.20
12006;DHT22;6062;47.294;12.182;2023-05-20T12:40:50;14.80;48.90
12006;DHT22;6062;47.294;12.182;2023-05-20T12:43:15;14.90;48.60
12006;DHT22;6062;47.294;12.182;2023-05-20T12:45:41;14.90;48.00
12006;DHT22;6062;47.294;12.182;2023-05-20T12:48:07;15.00;47.30
12006;DHT22;6062;47.294;12.182;2023-05-20T12:50:33;14.90;47.90
12006;DHT22;6062;47.294;12.182;2023-05-20T12:52:58;15.00;48.20
12006;DHT22;6062;47.294;12.182;2023-05-20T12:55:24;15.10;47.70
12006;DHT22;6062;47.294;12.182;2023-05-20T12:57:50;15.10;47.50
12006;DHT22;6062;47.294;12.182;2023-05-20T13:00:17;15.20;47.60
12006;DHT22;6062;47.294;12.182;2023-05-20T13:02:43;15.30;47.70
12006;DHT22;6062;47.294;12.182;2023-05-20T13:05:09;15.30;46.90
12006;DHT22;6062;47.294;12.182;2023-05-20T13:07:35;15.30;46.50
12006;DHT22;6062;47.294;12.182;2023-05-20T13:10:01;15.30;46.80
12006;DHT22;6062;47.294;12.182;2023-05-20T13:12:27;15.20;46.20
12006;DHT22;6062;47.294;12.182;2023-05-20T13:14:53;15.20;46.60
12006;DHT22;6062;47.294;12.182;2023-05-20T13:17:19;15.10;46.60
12006;DHT22;6062;47.294;12.182;2023-05-20T13:19:45;15.00;46.50
12006;DHT22;6062;47.294;12.182;2023-05-20T13:22:11;15.00;47.20
12006;DHT22;6062;47.294;12.182;2023-05-20T13:24:37;14.90;46.80
12006;DHT22;6062;47.294;12.182;2023-05-20T13:27:03;14.90;46.30
12006;DHT22;6062;47.294;12.182;2023-05-20T13:29:29;14.90;47.20
12006;DHT22;6062;47.294;12.182;2023-05-20T13:31:56;14.80;46.90
12006;DHT22;6062;47.294;12.182;2023-05-20T13:34:22;14.80;47.20
12006;DHT22;6062;47.294;12.182;2023-05-20T13:36:47;14.70;47.60
12006;DHT22;6062;47.294;12.182;2023-05-20T13:39:16;14.70;47.90
12006;DHT22;6062;47.294;12.182;2023-05-20T13:41:42;14.60;48.20
12006;DHT22;6062;47.294;12.182;2023-05-20T13:44:08;14.70;48.30
12006;DHT22;6062;47.294;12.182;2023-05-20T13:46:34;14.70;48.30
12006;DHT22;6062;47.294;12.182;2023-05-20T13:49:00;14.70;48.00
12006;DHT22;6062;47.294;12.182;2023-05-20T13:51:26;14.70;47.80
12006;DHT22;6062;47.294;12.182;2023-05-20T13:53:51;14.60;48.00
12006;DHT22;6062;47.294;12.182;2023-05-20T13:56:17;14.60;48.10
12006;DHT22;6062;47.294;12.182;2023-05-20T13:58:44;14.50;48.00
12006;DHT22;6062;47.294;12.182;2023-05-20T14:01:09;14.40;47.70
12006;DHT22;6062;47.294;12.182;2023-05-20T14:03:37;14.30;47.90
12006;DHT22;6062;47.294;12.182;2023-05-20T14:06:04;14.10;48.40
12006;DHT22;6062;47.294;12.182;2023-05-20T14:08:30;14.00;48.90
12006;DHT22;6062;47.294;12.182;2023-05-20T14:10:56;13.90;48.90
12006;DHT22;6062;47.294;12.182;2023-05-20T14:13:22;13.70;49.10
12006;DHT22;6062;47.294;12.182;2023-05-20T14:15:49;13.60;49.20
12006;DHT22;6062;47.294;12.182;2023-05-20T14:18:16;13.50;49.60
12006;DHT22;6062;47.294;12.182;2023-05-20T14:20:43;13.40;50.00
12006;DHT22;6062;47.294;12.182;2023-05-20T14:23:09;13.30;50.50
12006;DHT22;6062;47.294;12.182;2023-05-20T14:25:35;13.10;50.50
12006;DHT22;6062;47.294;12.182;2023-05-20T14:28:01;13.10;50.70
12006;DHT22;6062;47.294;12.182;2023-05-20T14:30:27;13.00;50.90
12006;DHT22;6062;47.294;12.182;2023-05-20T14:32:53;12.90;51.10
12006;DHT22;6062;47.294;12.182;2023-05-20T14:35:19;12.80;51.40
12006;DHT22;6062;47.294;12.182;2023-05-20T14:37:45;12.80;51.50
12006;DHT22;6062;47.294;12.182;2023-05-20T14:40:11;12.80;51.70
12006;DHT22;6062;47.294;12.182;2023-05-20T14:42:37;12.80;51.90
12006;DHT22;6062;47.294;12.182;2023-05-20T14:45:03;12.90;52.20
12006;DHT22;6062;47.294;12.182;2023-05-20T14:47:29;12.90;51.90
12006;DHT22;6062;47.294;12.182;2023-05-20T14:49:55;12.90;51.60
12006;DHT22;6062;47.294;12.182;2023-05-20T14:52:21;12.90;51.50
12006;DHT22;6062;47.294;12.182;2023-05-20T14:54:47;12.90;51.70
12006;DHT22;6062;47.294;12.182;2023-05-20T14:57:13;12.80;51.70
12006;DHT22;6062;47.294;12.182;2023-05-20T14:59:40;12.80;51.50
12006;DHT22;6062;47.294;12.182;2023-05-20T15:02:07;12.80;51.60
12006;DHT22;6062;47.294;12.182;2023-05-20T15:04:33;12.70;51.60
12006;DHT22;6062;47.294;12.182;2023-05-20T15:06:59;12.70;51.50
12006;DHT22;6062;47.294;12.182;2023-05-20T15:09:25;12.60;51.40
12006;DHT22;6062;47.294;12.182;2023-05-20T15:11:51;12.60;51.30
12006;DHT22;6062;47.294;12.182;2023-05-20T15:14:17;12.50;51.50
12006;DHT22;6062;47.294;12.182;2023-05-20T15:16:43;12.50;51.50
12006;DHT22;6062;47.294;12.182;2023-05-20T15:19:11;12.50;52.00
12006;DHT22;6062;47.294;12.182;2023-05-20T15:21:38;12.40;51.60
12006;DHT22;6062;47.294;12.182;2023-05-20T15:24:04;12.40;51.40
12006;DHT22;6062;47.294;12.182;2023-05-20T15:26:30;12.40;51.50
12006;DHT22;6062;47.294;12.182;2023-05-20T15:28:56;12.40;51.50
12006;DHT22;6062;47.294;12.182;2023-05-20T15:31:22;12.40;51.50
12006;DHT22;6062;47.294;12.182;2023-05-20T15:33:48;12.40;51.60
12006;DHT22;6062;47.294;12.182;2023-05-20T15:36:14;12.40;51.70
12006;DHT22;6062;47.294;12.182;2023-05-20T15:38:40;12.30;51.80
12006;DHT22;6062;47.294;12.182;2023-05-20T15:41:06;12.30;51.80